sensor_id;sensor_type;location;lat;lon;timestamp;pressure;altitude;pressure_sealevel;temperature;humidity
79534;BME280;68982;52.160;6.736;2023-05-07T00:00:00;101475.84;;;14.20;87.53
79534;BME280;68982;52.160;6.736;2023-05-07T00:02:26;101487.47;;;14.14;87.22
79534;BME280;68982;52.160;6.736;2023-05-07T00:04:51;101485.75;;;14.06;87.27
79534;BME280;68982;52.160;6.736;2023-05-07T00:07:17;101478.25;;;14.08;87.41
79534;BME280;68982;52.160;6.736;2023-05-07T00:09:42;101477.78;;;14.26;85.97
79534;BME280;68982;52.160;6.736;2023-05-07T00:12:08;101479.19;;;14.22;86.83
79534;BME280;68982;52.160;6.736;2023-05-07T00:14:33;101485.13;;;14.32;85.16
79534;BME280;68982;52.160;6.736;2023-05-07T00:16:58;101489.25;;;14.28;86.47
79534;BME280;68982;52.160;6.736;2023-05-07T00:19:24;101493.84;;;14.27;86.59
79534;BME280;68982;52.160;6.736;2023-05-07T00:21:49;101499.88;;;14.23;87.14
79534;BME280;68982;52.160;6.736;2023-05-07T00:24:14;101493.75;;;14.14;87.09
79534;BME280;68982;52.160;6.736;2023-05-07T00:26:40;101497.88;;;14.10;87.26
79534;BME280;68982;52.160;6.736;2023-05-07T00:29:05;101495.06;;;14.25;85.34
79534;BME280;68982;52.160;6.736;2023-05-07T00:31:31;101487.09;;;14.17;87.32
79534;BME280;68982;52.160;6.736;2023-05-07T00:33:56;101487.69;;;14.12;86.52
79534;BME280;68982;52.160;6.736;2023-05-07T00:36:21;101485.81;;;14.13;86.99
79534;BME280;68982;52.160;6.736;2023-05-07T00:38:46;101496.59;;;14.06;87.00
79534;BME280;68982;52.160;6.736;2023-05-07T00:41:12;101484.63;;;14.00;87.51
79534;BME280;68982;52.160;6.736;2023-05-07T00:43:37;101485.56;;;14.07;87.16
79534;BME280;68982;52.160;6.736;2023-05-07T00:46:02;101489.75;;;14.10;86.48
79534;BME280;68982;52.160;6.736;2023-05-07T00:48:28;101485.34;;;14.09;87.07
79534;BME280;68982;52.160;6.736;2023-05-07T00:50:53;101492.53;;;14.17;86.55
79534;BME280;68982;52.160;6.736;2023-05-07T00:53:19;101485.41;;;14.16;86.51
79534;BME280;68982;52.160;6.736;2023-05-07T00:55:45;101482.03;;;14.14;87.27
79534;BME280;68982;52.160;6.736;2023-05-07T00:58:11;101481.22;;;14.13;87.00
79534;BME280;68982;52.160;6.736;2023-05-07T01:00:36;101483.50;;;14.09;86.60
79534;BME280;68982;52.160;6.736;2023-05-07T01:03:02;101479.69;;;14.04;87.06
79534;BME280;68982;52.160;6.736;2023-05-07T01:05:28;101481.91;;;14.22;85.63
79534;BME280;68982;52.160;6.736;2023-05-07T01:07:56;101478.22;;;14.29;85.45
79534;BME280;68982;52.160;6.736;2023-05-07T01:10:22;101477.25;;;14.16;86.28
79534;BME280;68982;52.160;6.736;2023-05-07T01:12:48;101473.91;;;14.14;86.82
79534;BME280;68982;52.160;6.736;2023-05-07T01:15:15;101470.31;;;14.06;86.41
79534;BME280;68982;52.160;6.736;2023-05-07T01:17:41;101472.88;;;14.15;84.68
79534;BME280;68982;52.160;6.736;2023-05-07T01:20:08;101464.06;;;14.06;87.52
79534;BME280;68982;52.160;6.736;2023-05-07T01:22:36;101454.44;;;14.03;86.29
79534;BME280;68982;52.160;6.736;2023-05-07T01:25:02;101454.91;;;14.14;85.76
79534;BME280;68982;52.160;6.736;2023-05-07T01:27:28;101454.09;;;14.13;85.51
79534;BME280;68982;52.160;6.736;2023-05-07T01:29:54;101448.53;;;14.21;85.39
79534;BME280;68982;52.160;6.736;2023-05-07T01:32:45;101444.94;;;14.14;84.60
79534;BME280;68982;52.160;6.736;2023-05-07T01:35:12;101442.31;;;13.99;86.27
79534;BME280;68982;52.160;6.736;2023-05-07T01:37:39;101438.81;;;14.05;85.66
79534;BME280;68982;52.160;6.736;2023-05-07T01:40:06;101445.22;;;13.98;86.32
79534;BME280;68982;52.160;6.736;2023-05-07T01:42:32;101439.13;;;13.96;86.03
79534;BME280;68982;52.160;6.736;2023-05-07T01:44:58;101434.25;;;13.84;87.59
79534;BME280;68982;52.160;6.736;2023-05-07T01:47:24;101444.31;;;13.91;86.09
79534;BME280;68982;52.160;6.736;2023-05-07T01:49:50;101437.66;;;13.93;87.10
79534;BME280;68982;52.160;6.736;2023-05-07T01:52:16;101441.00;;;13.95;84.26
79534;BME280;68982;52.160;6.736;2023-05-07T01:54:41;101446.91;;;13.99;86.01
79534;BME280;68982;52.160;6.736;2023-05-07T01:57:07;101443.91;;;13.94;85.44
79534;BME280;68982;52.160;6.736;2023-05-07T01:59:33;101451.22;;;13.93;85.84
79534;BME280;68982;52.160;6.736;2023-05-07T02:01:58;101448.50;;;13.93;86.39
79534;BME280;68982;52.160;6.736;2023-05-07T02:04:23;101447.69;;;13.93;86.25
79534;BME280;68982;52.160;6.736;2023-05-07T02:06:49;101448.25;;;13.88;86.24
79534;BME280;68982;52.160;6.736;2023-05-07T02:09:15;101459.34;;;13.93;85.80
79534;BME280;68982;52.160;6.736;2023-05-07T02:11:41;101459.94;;;13.88;85.63
79534;BME280;68982;52.160;6.736;2023-05-07T02:14:06;101462.78;;;13.80;86.22
79534;BME280;68982;52.160;6.736;2023-05-07T02:16:31;101452.16;;;13.79;85.89
79534;BME280;68982;52.160;6.736;2023-05-07T02:18:57;101457.09;;;13.75;86.28
79534;BME280;68982;52.160;6.736;2023-05-07T02:21:23;101459.69;;;13.83;85.78
79534;BME280;68982;52.160;6.736;2023-05-07T02:23:48;101456.16;;;13.83;85.26
79534;BME280;68982;52.160;6.736;2023-05-07T02:26:14;101455.75;;;13.86;85.48
79534;BME280;68982;52.160;6.736;2023-05-07T02:28:39;101461.28;;;13.78;86.15
79534;BME280;68982;52.160;6.736;2023-05-07T02:31:05;101461.50;;;13.76;85.46
79534;BME280;68982;52.160;6.736;2023-05-07T02:33:30;101458.16;;;13.74;85.67
79534;BME280;68982;52.160;6.736;2023-05-07T02:35:56;101454.16;;;13.70;85.68
79534;BME280;68982;52.160;6.736;2023-05-07T02:38:22;101458.34;;;13.73;85.29
79534;BME280;68982;52.160;6.736;2023-05-07T02:40:47;101455.38;;;13.67;84.86
79534;BME280;68982;52.160;6.736;2023-05-07T02:43:13;101460.81;;;13.67;84.59
79534;BME280;68982;52.160;6.736;2023-05-07T02:45:38;101467.41;;;13.65;84.54
79534;BME280;68982;52.160;6.736;2023-05-07T02:48:04;101463.69;;;13.66;85.02
79534;BME280;68982;52.160;6.736;2023-05-07T02:50:30;101461.31;;;13.56;85.27
79534;BME280;68982;52.160;6.736;2023-05-07T02:52:57;101455.50;;;13.59;84.94
79534;BME280;68982;52.160;6.736;2023-05-07T02:55:23;101457.38;;;13.59;85.34
79534;BME280;68982;52.160;6.736;2023-05-07T02:57:48;101456.28;;;13.53;85.42
79534;BME280;68982;52.160;6.736;2023-05-07T03:00:18;101458.16;;;13.53;84.91
79534;BME280;68982;52.160;6.736;2023-05-07T03:02:44;101451.34;;;13.42;85.15
79534;BME280;68982;52.160;6.736;2023-05-07T03:05:10;101458.47;;;13.43;85.12
79534;BME280;68982;52.160;6.736;2023-05-07T03:07:36;101453.06;;;13.43;84.35
79534;BME280;68982;52.160;6.736;2023-05-07T03:10:02;101461.53;;;13.40;85.55
79534;BME280;68982;52.160;6.736;2023-05-07T03:12:27;101461.38;;;13.41;84.13
79534;BME280;68982;52.160;6.736;2023-05-07T03:14:52;101456.69;;;13.35;85.02
79534;BME280;68982;52.160;6.736;2023-05-07T03:17:18;101454.81;;;13.36;85.20
79534;BME280;68982;52.160;6.736;2023-05-07T03:19:43;101455.47;;;13.38;84.81
79534;BME280;68982;52.160;6.736;2023-05-07T03:22:08;101457.34;;;13.37;84.87
79534;BME280;68982;52.160;6.736;2023-05-07T03:24:34;101457.28;;;13.31;84.99
79534;BME280;68982;52.160;6.736;2023-05-07T03:26:59;101457.09;;;13.32;83.77
79534;BME280;68982;52.160;6.736;2023-05-07T03:29:26;101464.06;;;13.26;85.11
79534;BME280;68982;52.160;6.736;2023-05-07T03:31:51;101468.28;;;13.29;84.70
79534;BME280;68982;52.160;6.736;2023-05-07T03:34:17;101468.44;;;13.42;83.55
79534;BME280;68982;52.160;6.736;2023-05-07T03:36:47;101464.56;;;13.30;84.54
79534;BME280;68982;52.160;6.736;2023-05-07T03:39:12;101464.06;;;13.26;84.70
79534;BME280;68982;52.160;6.736;2023-05-07T03:41:38;101456.63;;;13.29;84.86
79534;BME280;68982;52.160;6.736;2023-05-07T03:44:03;101461.22;;;13.28;84.56
79534;BME280;68982;52.160;6.736;2023-05-07T03:46:28;101453.41;;;13.25;84.54
79534;BME280;68982;52.160;6.736;2023-05-07T03:48:54;101452.72;;;13.16;85.27
79534;BME280;68982;52.160;6.736;2023-05-07T03:51:19;101451.78;;;13.09;85.45
79534;BME280;68982;52.160;6.736;2023-05-07T03:53:44;101455.78;;;13.13;85.12
79534;BME280;68982;52.160;6.736;2023-05-07T03:56:10;101453.00;;;13.06;84.63
79534;BME280;68982;52.160;6.736;2023-05-07T03:58:35;101455.06;;;13.04;85.21
79534;BME280;68982;52.160;6.736;2023-05-07T04:01:00;101465.91;;;13.04;84.36
79534;BME280;68982;52.160;6.736;2023-05-07T04:03:26;101470.75;;;13.09;84.40
79534;BME280;68982;52.160;6.736;2023-05-07T04:05:51;101473.59;;;13.22;83.34
79534;BME280;68982;52.160;6.736;2023-05-07T04:08:16;101469.88;;;13.23;84.26
79534;BME280;68982;52.160;6.736;2023-05-07T04:10:42;101467.28;;;13.15;83.70
79534;BME280;68982;52.160;6.736;2023-05-07T04:13:07;101470.16;;;13.14;83.97
79534;BME280;68982;52.160;6.736;2023-05-07T04:15:32;101472.63;;;12.94;85.45
79534;BME280;68982;52.160;6.736;2023-05-07T04:17:58;101477.22;;;12.93;84.63
79534;BME280;68982;52.160;6.736;2023-05-07T04:20:23;101471.22;;;12.98;84.48
79534;BME280;68982;52.160;6.736;2023-05-07T04:22:48;101475.06;;;12.89;85.48
79534;BME280;68982;52.160;6.736;2023-05-07T04:25:15;101465.84;;;12.83;84.91
79534;BME280;68982;52.160;6.736;2023-05-07T04:27:41;101472.09;;;12.98;83.85
79534;BME280;68982;52.160;6.736;2023-05-07T04:30:07;101468.44;;;12.91;84.24
79534;BME280;68982;52.160;6.736;2023-05-07T04:32:32;101468.34;;;12.84;84.54
79534;BME280;68982;52.160;6.736;2023-05-07T04:34:57;101475.53;;;12.77;85.13
79534;BME280;68982;52.160;6.736;2023-05-07T04:37:23;101485.16;;;12.95;84.00
79534;BME280;68982;52.160;6.736;2023-05-07T04:39:48;101475.16;;;12.95;83.62
79534;BME280;68982;52.160;6.736;2023-05-07T04:42:17;101473.00;;;12.91;83.97
79534;BME280;68982;52.160;6.736;2023-05-07T04:44:43;101483.75;;;12.99;83.91
79534;BME280;68982;52.160;6.736;2023-05-07T04:47:09;101477.84;;;13.10;83.19
79534;BME280;68982;52.160;6.736;2023-05-07T04:49:35;101487.47;;;13.13;82.57
79534;BME280;68982;52.160;6.736;2023-05-07T04:52:00;101492.88;;;12.98;83.39
79534;BME280;68982;52.160;6.736;2023-05-07T04:54:26;101490.38;;;12.96;83.83
79534;BME280;68982;52.160;6.736;2023-05-07T04:56:51;101488.88;;;12.94;83.57
79534;BME280;68982;52.160;6.736;2023-05-07T04:59:17;101489.91;;;12.93;82.99
79534;BME280;68982;52.160;6.736;2023-05-07T05:01:42;101486.81;;;12.96;83.56
79534;BME280;68982;52.160;6.736;2023-05-07T05:04:07;101491.88;;;12.99;83.66
79534;BME280;68982;52.160;6.736;2023-05-07T05:06:33;101491.78;;;12.92;83.16
79534;BME280;68982;52.160;6.736;2023-05-07T05:08:58;101498.78;;;12.72;84.21
79534;BME280;68982;52.160;6.736;2023-05-07T05:11:23;101494.94;;;12.96;82.88
79534;BME280;68982;52.160;6.736;2023-05-07T05:13:49;101499.34;;;12.97;81.88
79534;BME280;68982;52.160;6.736;2023-05-07T05:16:14;101495.53;;;12.76;82.16
79534;BME280;68982;52.160;6.736;2023-05-07T05:18:40;101506.72;;;12.73;83.40
79534;BME280;68982;52.160;6.736;2023-05-07T05:21:05;101502.13;;;12.74;83.06
79534;BME280;68982;52.160;6.736;2023-05-07T05:23:31;101509.41;;;12.73;83.90
79534;BME280;68982;52.160;6.736;2023-05-07T05:25:56;101500.19;;;12.68;83.20
79534;BME280;68982;52.160;6.736;2023-05-07T05:28:25;101505.50;;;12.76;82.93
79534;BME280;68982;52.160;6.736;2023-05-07T05:30:50;101519.13;;;12.82;82.98
79534;BME280;68982;52.160;6.736;2023-05-07T05:33:16;101515.56;;;12.82;83.08
79534;BME280;68982;52.160;6.736;2023-05-07T05:35:41;101520.25;;;13.03;82.41
79534;BME280;68982;52.160;6.736;2023-05-07T05:38:07;101522.22;;;12.79;82.90
79534;BME280;68982;52.160;6.736;2023-05-07T05:40:32;101523.13;;;12.86;82.38
79534;BME280;68982;52.160;6.736;2023-05-07T05:42:58;101528.53;;;12.86;82.58
79534;BME280;68982;52.160;6.736;2023-05-07T05:45:24;101523.69;;;12.97;82.37
79534;BME280;68982;52.160;6.736;2023-05-07T05:47:49;101527.97;;;13.06;82.36
79534;BME280;68982;52.160;6.736;2023-05-07T05:50:15;101520.06;;;12.90;81.63
79534;BME280;68982;52.160;6.736;2023-05-07T05:52:40;101516.88;;;12.86;82.70
79534;BME280;68982;52.160;6.736;2023-05-07T05:55:06;101528.38;;;12.88;82.70
79534;BME280;68982;52.160;6.736;2023-05-07T05:57:32;101529.56;;;13.00;81.82
79534;BME280;68982;52.160;6.736;2023-05-07T05:59:57;101525.38;;;12.98;82.26
79534;BME280;68982;52.160;6.736;2023-05-07T06:02:22;101524.28;;;12.92;82.26
79534;BME280;68982;52.160;6.736;2023-05-07T06:04:48;101535.38;;;13.12;81.91
79534;BME280;68982;52.160;6.736;2023-05-07T06:07:14;101528.16;;;13.04;82.06
79534;BME280;68982;52.160;6.736;2023-05-07T06:09:39;101537.78;;;13.22;82.07
79534;BME280;68982;52.160;6.736;2023-05-07T06:12:05;101544.72;;;13.10;82.18
79534;BME280;68982;52.160;6.736;2023-05-07T06:14:30;101549.09;;;13.11;81.89
79534;BME280;68982;52.160;6.736;2023-05-07T06:16:56;101543.66;;;12.96;81.98
79534;BME280;68982;52.160;6.736;2023-05-07T06:19:21;101546.47;;;13.02;82.08
79534;BME280;68982;52.160;6.736;2023-05-07T06:21:49;101542.47;;;12.98;83.23
79534;BME280;68982;52.160;6.736;2023-05-07T06:24:14;101550.69;;;13.05;82.12
79534;BME280;68982;52.160;6.736;2023-05-07T06:26:39;101551.41;;;13.14;81.43
79534;BME280;68982;52.160;6.736;2023-05-07T06:29:06;101555.06;;;13.21;81.67
79534;BME280;68982;52.160;6.736;2023-05-07T06:31:31;101549.00;;;13.19;81.41
79534;BME280;68982;52.160;6.736;2023-05-07T06:33:57;101553.44;;;13.26;80.91
79534;BME280;68982;52.160;6.736;2023-05-07T06:36:22;101554.69;;;13.39;80.72
79534;BME280;68982;52.160;6.736;2023-05-07T06:38:48;101566.84;;;13.28;81.07
79534;BME280;68982;52.160;6.736;2023-05-07T06:41:13;101557.75;;;13.36;81.00
79534;BME280;68982;52.160;6.736;2023-05-07T06:43:38;101557.56;;;13.52;80.06
79534;BME280;68982;52.160;6.736;2023-05-07T06:46:04;101564.22;;;13.35;81.02
79534;BME280;68982;52.160;6.736;2023-05-07T06:48:30;101560.03;;;13.32;81.89
79534;BME280;68982;52.160;6.736;2023-05-07T06:50:56;101552.72;;;13.33;81.11
79534;BME280;68982;52.160;6.736;2023-05-07T06:53:23;101562.53;;;13.34;81.49
79534;BME280;68982;52.160;6.736;2023-05-07T06:55:48;101563.09;;;13.44;80.96
79534;BME280;68982;52.160;6.736;2023-05-07T06:58:13;101573.16;;;13.50;81.07
79534;BME280;68982;52.160;6.736;2023-05-07T07:00:39;101566.19;;;13.41;81.07
79534;BME280;68982;52.160;6.736;2023-05-07T07:03:06;101564.00;;;13.51;80.97
79534;BME280;68982;52.160;6.736;2023-05-07T07:05:31;101568.19;;;13.54;80.48
79534;BME280;68982;52.160;6.736;2023-05-07T07:07:56;101555.19;;;13.64;80.22
79534;BME280;68982;52.160;6.736;2023-05-07T07:10:22;101562.50;;;13.63;80.88
79534;BME280;68982;52.160;6.736;2023-05-07T07:12:48;101558.66;;;13.58;80.88
79534;BME280;68982;52.160;6.736;2023-05-07T07:15:14;101564.22;;;13.50;81.06
79534;BME280;68982;52.160;6.736;2023-05-07T07:17:40;101567.63;;;13.58;81.23
79534;BME280;68982;52.160;6.736;2023-05-07T07:20:06;101571.53;;;13.71;81.36
79534;BME280;68982;52.160;6.736;2023-05-07T07:22:31;101571.53;;;13.71;80.89
79534;BME280;68982;52.160;6.736;2023-05-07T07:24:57;101575.59;;;13.81;79.98
79534;BME280;68982;52.160;6.736;2023-05-07T07:27:22;101576.75;;;13.94;81.03
79534;BME280;68982;52.160;6.736;2023-05-07T07:29:47;101576.72;;;14.08;79.73
79534;BME280;68982;52.160;6.736;2023-05-07T07:32:13;101576.78;;;14.15;78.51
79534;BME280;68982;52.160;6.736;2023-05-07T07:34:38;101578.00;;;14.13;78.78
79534;BME280;68982;52.160;6.736;2023-05-07T07:37:03;101578.19;;;14.11;79.09
79534;BME280;68982;52.160;6.736;2023-05-07T07:39:32;101586.94;;;14.28;80.03
79534;BME280;68982;52.160;6.736;2023-05-07T07:41:57;101584.47;;;14.33;79.47
79534;BME280;68982;52.160;6.736;2023-05-07T07:44:23;101579.09;;;14.40;78.65
79534;BME280;68982;52.160;6.736;2023-05-07T07:46:48;101587.03;;;14.41;79.43
79534;BME280;68982;52.160;6.736;2023-05-07T07:49:14;101587.59;;;14.58;78.69
79534;BME280;68982;52.160;6.736;2023-05-07T07:51:39;101575.66;;;14.74;78.16
79534;BME280;68982;52.160;6.736;2023-05-07T07:54:05;101581.25;;;14.73;77.83
79534;BME280;68982;52.160;6.736;2023-05-07T07:56:32;101570.53;;;14.64;79.70
79534;BME280;68982;52.160;6.736;2023-05-07T07:58:58;101572.19;;;14.59;78.78
79534;BME280;68982;52.160;6.736;2023-05-07T08:01:24;101569.75;;;14.70;78.83
79534;BME280;68982;52.160;6.736;2023-05-07T08:03:49;101564.78;;;14.74;77.53
79534;BME280;68982;52.160;6.736;2023-05-07T08:06:15;101570.44;;;14.79;77.96
79534;BME280;68982;52.160;6.736;2023-05-07T08:08:40;101573.59;;;14.83;78.26
79534;BME280;68982;52.160;6.736;2023-05-07T08:11:06;101565.44;;;14.83;77.84
79534;BME280;68982;52.160;6.736;2023-05-07T08:13:31;101573.91;;;14.95;77.31
79534;BME280;68982;52.160;6.736;2023-05-07T08:15:57;101571.38;;;14.93;77.28
79534;BME280;68982;52.160;6.736;2023-05-07T08:18:22;101572.84;;;14.96;78.12
79534;BME280;68982;52.160;6.736;2023-05-07T08:20:49;101579.38;;;15.01;77.30
79534;BME280;68982;52.160;6.736;2023-05-07T08:23:15;101574.19;;;15.13;77.86
79534;BME280;68982;52.160;6.736;2023-05-07T08:25:40;101580.94;;;15.24;76.69
79534;BME280;68982;52.160;6.736;2023-05-07T08:28:07;101585.56;;;15.23;76.29
79534;BME280;68982;52.160;6.736;2023-05-07T08:30:33;101580.53;;;15.27;77.27
79534;BME280;68982;52.160;6.736;2023-05-07T08:32:58;101592.06;;;15.36;76.70
79534;BME280;68982;52.160;6.736;2023-05-07T08:35:23;101582.66;;;15.31;76.48
79534;BME280;68982;52.160;6.736;2023-05-07T08:37:50;101579.56;;;15.41;76.52
79534;BME280;68982;52.160;6.736;2023-05-07T08:40:16;101580.00;;;15.45;75.92
79534;BME280;68982;52.160;6.736;2023-05-07T08:42:41;101586.75;;;15.62;75.81
79534;BME280;68982;52.160;6.736;2023-05-07T08:45:09;101584.88;;;15.63;75.13
79534;BME280;68982;52.160;6.736;2023-05-07T08:47:43;101593.31;;;15.74;76.37
79534;BME280;68982;52.160;6.736;2023-05-07T08:50:11;101583.72;;;15.79;75.30
79534;BME280;68982;52.160;6.736;2023-05-07T08:52:37;101586.03;;;15.88;74.47
79534;BME280;68982;52.160;6.736;2023-05-07T08:55:03;101584.78;;;15.98;74.03
79534;BME280;68982;52.160;6.736;2023-05-07T08:57:28;101587.53;;;16.11;72.90
79534;BME280;68982;52.160;6.736;2023-05-07T08:59:54;101590.69;;;16.14;72.57
79534;BME280;68982;52.160;6.736;2023-05-07T09:02:20;101589.66;;;16.29;73.45
79534;BME280;68982;52.160;6.736;2023-05-07T09:04:45;101583.81;;;16.32;73.88
79534;BME280;68982;52.160;6.736;2023-05-07T09:07:11;101592.38;;;16.49;73.26
79534;BME280;68982;52.160;6.736;2023-05-07T09:09:37;101590.50;;;16.56;72.88
79534;BME280;68982;52.160;6.736;2023-05-07T09:12:03;101596.38;;;16.73;72.55
79534;BME280;68982;52.160;6.736;2023-05-07T09:14:29;101585.47;;;16.73;72.32
79534;BME280;68982;52.160;6.736;2023-05-07T09:16:56;101585.91;;;16.83;71.95
79534;BME280;68982;52.160;6.736;2023-05-07T09:19:25;101583.81;;;16.78;71.70
79534;BME280;68982;52.160;6.736;2023-05-07T09:22:04;101588.03;;;16.81;71.21
79534;BME280;68982;52.160;6.736;2023-05-07T09:24:30;101594.72;;;16.72;72.17
79534;BME280;68982;52.160;6.736;2023-05-07T09:27:00;101587.78;;;16.89;71.08
79534;BME280;68982;52.160;6.736;2023-05-07T09:29:27;101592.81;;;16.86;71.15
79534;BME280;68982;52.160;6.736;2023-05-07T09:32:03;101585.91;;;16.96;70.45
79534;BME280;68982;52.160;6.736;2023-05-07T09:34:29;101585.88;;;17.03;70.79
79534;BME280;68982;52.160;6.736;2023-05-07T09:36:55;101577.06;;;17.08;70.42
79534;BME280;68982;52.160;6.736;2023-05-07T09:39:22;101586.25;;;17.13;70.30
79534;BME280;68982;52.160;6.736;2023-05-07T09:41:48;101589.41;;;17.17;69.96
79534;BME280;68982;52.160;6.736;2023-05-07T09:44:14;101591.03;;;17.31;70.28
79534;BME280;68982;52.160;6.736;2023-05-07T09:46:42;101588.50;;;17.36;70.87
79534;BME280;68982;52.160;6.736;2023-05-07T09:49:13;101592.44;;;17.47;69.78
79534;BME280;68982;52.160;6.736;2023-05-07T09:51:48;101582.59;;;17.46;68.30
79534;BME280;68982;52.160;6.736;2023-05-07T09:54:15;101577.31;;;17.51;69.24
79534;BME280;68982;52.160;6.736;2023-05-07T09:56:40;101586.66;;;17.75;68.69
79534;BME280;68982;52.160;6.736;2023-05-07T09:59:11;101590.75;;;17.98;70.60
79534;BME280;68982;52.160;6.736;2023-05-07T10:01:38;101596.81;;;18.00;68.26
79534;BME280;68982;52.160;6.736;2023-05-07T10:04:05;101588.06;;;17.91;67.19
79534;BME280;68982;52.160;6.736;2023-05-07T10:06:31;101585.91;;;18.00;67.39
79534;BME280;68982;52.160;6.736;2023-05-07T10:08:57;101593.22;;;18.06;66.77
79534;BME280;68982;52.160;6.736;2023-05-07T10:11:22;101586.53;;;18.02;69.11
79534;BME280;68982;52.160;6.736;2023-05-07T10:13:48;101588.53;;;17.81;67.86
79534;BME280;68982;52.160;6.736;2023-05-07T10:16:14;101593.56;;;17.85;67.73
79534;BME280;68982;52.160;6.736;2023-05-07T10:18:40;101589.78;;;17.79;67.86
79534;BME280;68982;52.160;6.736;2023-05-07T10:21:24;101594.38;;;17.78;66.98
79534;BME280;68982;52.160;6.736;2023-05-07T10:23:58;101599.47;;;17.81;68.12
79534;BME280;68982;52.160;6.736;2023-05-07T10:26:25;101597.72;;;17.87;66.67
79534;BME280;68982;52.160;6.736;2023-05-07T10:28:59;101599.34;;;18.01;65.96
79534;BME280;68982;52.160;6.736;2023-05-07T10:31:46;101602.06;;;18.33;66.88
79534;BME280;68982;52.160;6.736;2023-05-07T10:34:17;101596.16;;;18.61;64.23
79534;BME280;68982;52.160;6.736;2023-05-07T10:36:45;101602.25;;;19.07;63.54
79534;BME280;68982;52.160;6.736;2023-05-07T10:39:10;101595.81;;;19.20;62.91
79534;BME280;68982;52.160;6.736;2023-05-07T10:41:36;101605.31;;;19.36;62.86
79534;BME280;68982;52.160;6.736;2023-05-07T10:44:02;101597.38;;;19.64;61.13
79534;BME280;68982;52.160;6.736;2023-05-07T10:46:28;101596.69;;;19.87;60.84
79534;BME280;68982;52.160;6.736;2023-05-07T10:51:34;101591.53;;;19.79;58.85
79534;BME280;68982;52.160;6.736;2023-05-07T10:56:35;101599.88;;;20.15;59.37
79534;BME280;68982;52.160;6.736;2023-05-07T11:04:18;101603.97;;;20.36;60.78
79534;BME280;68982;52.160;6.736;2023-05-07T11:15:04;101596.56;;;20.90;58.54
79534;BME280;68982;52.160;6.736;2023-05-07T11:17:29;101583.06;;;20.88;54.11
79534;BME280;68982;52.160;6.736;2023-05-07T11:19:57;101581.25;;;21.18;56.69
79534;BME280;68982;52.160;6.736;2023-05-07T11:24:59;101578.00;;;21.21;54.32
79534;BME280;68982;52.160;6.736;2023-05-07T11:27:25;101577.41;;;21.19;56.37
79534;BME280;68982;52.160;6.736;2023-05-07T11:29:51;101583.28;;;21.22;54.71
79534;BME280;68982;52.160;6.736;2023-05-07T11:32:22;101586.72;;;21.41;56.49
79534;BME280;68982;52.160;6.736;2023-05-07T11:34:51;101584.47;;;21.26;53.84
79534;BME280;68982;52.160;6.736;2023-05-07T11:37:17;101583.63;;;21.14;54.39
79534;BME280;68982;52.160;6.736;2023-05-07T11:39:43;101577.69;;;21.17;53.17
79534;BME280;68982;52.160;6.736;2023-05-07T11:42:29;101580.16;;;21.19;54.72
79534;BME280;68982;52.160;6.736;2023-05-07T11:44:55;101588.84;;;21.39;53.80
79534;BME280;68982;52.160;6.736;2023-05-07T11:47:20;101584.31;;;21.57;56.06
79534;BME280;68982;52.160;6.736;2023-05-07T11:49:48;101581.28;;;21.87;53.91
79534;BME280;68982;52.160;6.736;2023-05-07T11:52:13;101580.19;;;21.71;53.85
79534;BME280;68982;52.160;6.736;2023-05-07T11:54:39;101581.06;;;21.60;54.70
79534;BME280;68982;52.160;6.736;2023-05-07T11:57:04;101584.38;;;21.21;55.49
79534;BME280;68982;52.160;6.736;2023-05-07T11:59:38;101586.09;;;21.39;55.23
79534;BME280;68982;52.160;6.736;2023-05-07T12:02:03;101596.63;;;21.42;53.77
79534;BME280;68982;52.160;6.736;2023-05-07T12:04:30;101594.09;;;21.52;53.25
79534;BME280;68982;52.160;6.736;2023-05-07T12:06:55;101591.00;;;21.49;53.99
79534;BME280;68982;52.160;6.736;2023-05-07T12:09:20;101595.06;;;21.46;53.05
79534;BME280;68982;52.160;6.736;2023-05-07T12:11:46;101588.19;;;21.61;52.64
79534;BME280;68982;52.160;6.736;2023-05-07T12:14:11;101584.09;;;21.75;51.53
79534;BME280;68982;52.160;6.736;2023-05-07T12:16:38;101579.72;;;21.91;52.80
79534;BME280;68982;52.160;6.736;2023-05-07T12:19:04;101583.81;;;21.88;53.13
79534;BME280;68982;52.160;6.736;2023-05-07T12:21:31;101581.06;;;21.88;53.94
79534;BME280;68982;52.160;6.736;2023-05-07T12:23:56;101584.09;;;22.04;53.60
79534;BME280;68982;52.160;6.736;2023-05-07T12:26:22;101589.63;;;21.92;52.52
79534;BME280;68982;52.160;6.736;2023-05-07T12:28:49;101573.50;;;21.96;51.42
79534;BME280;68982;52.160;6.736;2023-05-07T12:31:15;101582.56;;;21.96;51.69
79534;BME280;68982;52.160;6.736;2023-05-07T12:33:41;101587.66;;;22.33;52.11
79534;BME280;68982;52.160;6.736;2023-05-07T12:36:07;101584.72;;;22.73;50.34
79534;BME280;68982;52.160;6.736;2023-05-07T12:38:37;101579.91;;;22.64;51.08
79534;BME280;68982;52.160;6.736;2023-05-07T12:41:03;101584.13;;;22.71;50.26
79534;BME280;68982;52.160;6.736;2023-05-07T12:43:29;101588.59;;;23.11;49.74
79534;BME280;68982;52.160;6.736;2023-05-07T12:45:57;101594.28;;;23.05;49.13
79534;BME280;68982;52.160;6.736;2023-05-07T12:48:25;101586.94;;;22.93;49.55
79534;BME280;68982;52.160;6.736;2023-05-07T12:50:59;101590.63;;;22.65;49.98
79534;BME280;68982;52.160;6.736;2023-05-07T12:53:26;101575.66;;;22.39;49.72
79534;BME280;68982;52.160;6.736;2023-05-07T12:55:54;101602.88;;;22.41;50.52
79534;BME280;68982;52.160;6.736;2023-05-07T12:58:30;101596.31;;;22.42;49.64
79534;BME280;68982;52.160;6.736;2023-05-07T13:00:58;101596.72;;;22.33;51.69
79534;BME280;68982;52.160;6.736;2023-05-07T13:03:34;101598.00;;;22.14;52.50
79534;BME280;68982;52.160;6.736;2023-05-07T13:06:01;101585.22;;;21.91;51.72